Time;durP1;ratioP1;P1;durP2;ratioP2;P2;SDS_P1;SDS_P2;PMS_P1;PMS_P2;Temp;Humidity;BMP_temperature;BMP_pressure;BME280_temperature;BME280_humidity;BME280_pressure;Samples;Min_cycle;Max_cycle;Signal;HPM_P1;HPM_P2
2022/01/16 00:05:36;;;;;;;43.40;20.25;;;2.00;99.90;;;;;;2123727;67;20255;-76
2022/01/16 00:08:19;;;;;;;49.15;22.02;;;1.90;99.90;;;;;;2115709;67;20185;-75
2022/01/16 00:11:06;;;;;;;49.33;22.90;;;1.90;99.90;;;;;;2110093;67;20374;-77
2022/01/16 00:13:51;;;;;;;48.60;23.40;;;1.80;99.90;;;;;;2106138;67;20290;-74
2022/01/16 00:16:33;;;;;;;55.75;23.00;;;1.80;99.90;;;;;;2118819;67;20223;-75
2022/01/16 00:19:16;;;;;;;46.15;22.08;;;1.80;99.90;;;;;;2123812;67;20274;-75
2022/01/16 00:22:00;;;;;;;46.97;20.92;;;1.90;99.90;;;;;;2124614;67;20180;-76
2022/01/16 00:24:43;;;;;;;51.88;22.15;;;1.90;99.90;;;;;;2130527;67;20231;-75
2022/01/16 00:27:27;;;;;;;31.98;16.77;;;2.00;99.90;;;;;;2126709;67;20196;-75
2022/01/16 00:30:12;;;;;;;37.40;19.42;;;2.00;99.90;;;;;;2129995;67;20341;-75
2022/01/16 00:32:59;;;;;;;45.95;20.10;;;2.00;99.90;;;;;;2120036;67;20320;-75
2022/01/16 00:35:40;;;;;;;46.30;21.00;;;1.90;99.90;;;;;;2123178;67;20164;-75
2022/01/16 00:38:22;;;;;;;49.90;22.30;;;1.90;99.90;;;;;;2122130;67;20321;-76
2022/01/16 00:41:03;;;;;;;42.40;20.05;;;1.90;99.90;;;;;;2116730;67;20201;-77
2022/01/16 00:43:49;;;;;;;46.88;22.90;;;1.80;99.90;;;;;;2122156;67;20321;-77
2022/01/16 00:46:35;;;;;;;42.65;20.80;;;1.80;99.90;;;;;;2125281;67;20192;-78
2022/01/16 00:49:20;;;;;;;53.20;22.55;;;1.70;99.90;;;;;;2132416;67;20360;-77
2022/01/16 00:52:02;;;;;;;50.65;23.05;;;1.70;99.90;;;;;;2129544;67;20234;-75
2022/01/16 00:54:44;;;;;;;47.92;20.50;;;1.70;99.90;;;;;;2123095;67;20651;-75
2022/01/16 00:57:27;;;;;;;49.28;23.58;;;1.60;99.90;;;;;;2132637;67;20590;-76
2022/01/16 01:00:11;;;;;;;47.45;23.95;;;1.60;99.90;;;;;;2143098;66;20736;-78
2022/01/16 01:02:54;;;;;;;56.75;26.15;;;1.60;99.90;;;;;;2145273;66;20181;-76
2022/01/16 01:05:41;;;;;;;58.78;26.48;;;1.60;99.90;;;;;;2147988;66;20421;-76
2022/01/16 01:08:26;;;;;;;59.30;27.20;;;1.70;99.90;;;;;;2137001;66;20199;-75
2022/01/16 01:11:29;;;;;;;59.15;27.63;;;1.70;99.90;;;;;;2133700;67;20752;-75
2022/01/16 01:14:20;;;;;;;66.65;28.40;;;1.70;99.90;;;;;;2141411;66;20804;-75
2022/01/16 01:17:08;;;;;;;55.30;24.17;;;1.70;99.90;;;;;;2142734;66;20188;-77
2022/01/16 01:19:50;;;;;;;59.22;28.17;;;1.70;99.90;;;;;;2129597;67;20755;-76
2022/01/16 01:22:35;;;;;;;64.78;27.55;;;1.80;99.90;;;;;;2133003;67;20371;-76
2022/01/16 01:25:17;;;;;;;66.57;28.45;;;1.70;99.90;;;;;;2131832;67;20246;-75
2022/01/16 01:27:59;;;;;;;70.28;29.70;;;1.80;99.90;;;;;;2127838;67;20341;-75
2022/01/16 01:30:45;;;;;;;63.28;26.90;;;2.00;99.90;;;;;;2135798;66;20245;-78
2022/01/16 01:33:28;;;;;;;62.55;28.60;;;1.80;99.90;;;;;;2143988;66;20249;-75
2022/01/16 01:36:10;;;;;;;66.47;29.27;;;1.80;99.90;;;;;;2130244;67;20454;-75
2022/01/16 01:38:52;;;;;;;58.97;28.27;;;2.00;99.90;;;;;;2125005;67;20333;-76
2022/01/16 01:41:35;;;;;;;58.15;28.85;;;1.80;99.90;;;;;;2130091;67;20231;-76
2022/01/16 01:53:21;;;;;;;56.65;28.23;;;2.30;99.90;;;;;;2111007;67;20177;-76
2022/01/16 01:56:08;;;;;;;62.97;29.93;;;1.90;99.90;;;;;;2106812;67;20193;-76
2022/01/16 01:59:11;;;;;;;65.18;31.83;;;1.90;99.90;;;;;;2103698;68;21489;-75
2022/01/16 02:01:53;;;;;;;62.40;30.90;;;1.80;99.90;;;;;;2114251;67;20170;-76
2022/01/16 02:04:35;;;;;;;56.83;26.50;;;1.80;99.90;;;;;;2110813;67;20248;-76
2022/01/16 02:07:18;;;;;;;72.22;32.15;;;2.00;99.90;;;;;;2114307;67;20744;-75
2022/01/16 02:10:01;;;;;;;69.60;30.95;;;1.80;99.90;;;;;;2126153;67;20219;-77
2022/01/16 02:12:46;;;;;;;66.30;31.98;;;1.80;99.90;;;;;;2118677;67;20318;-76
2022/01/16 02:36:32;;;;;;;77.05;34.97;;;1.80;99.90;;;;;;2083755;68;20275;-75
2022/01/16 02:39:17;;;;;;;73.35;32.50;;;1.80;99.90;;;;;;2082735;68;20204;-75
2022/01/16 02:42:00;;;;;;;90.85;34.00;;;1.80;99.90;;;;;;2084702;68;20349;-75
2022/01/16 02:44:46;;;;;;;83.57;33.40;;;2.00;99.90;;;;;;2083708;68;20208;-75
2022/01/16 02:47:33;;;;;;;81.47;34.50;;;1.80;99.90;;;;;;2084381;68;20237;-75
2022/01/16 02:50:15;;;;;;;84.07;34.50;;;1.80;99.90;;;;;;2083493;68;20192;-76
2022/01/16 02:52:58;;;;;;;87.55;35.90;;;1.80;99.90;;;;;;2083937;68;20183;-75
2022/01/16 02:55:44;;;;;;;77.55;36.17;;;1.70;99.90;;;;;;2083721;68;20213;-75
2022/01/16 02:58:26;;;;;;;88.57;36.30;;;1.80;99.90;;;;;;2096655;68;21091;-76
2022/01/16 03:01:13;;;;;;;91.53;36.80;;;1.80;99.90;;;;;;2096659;68;20766;-77
2022/01/16 03:03:56;;;;;;;92.72;36.38;;;2.20;99.90;;;;;;2105713;67;20356;-75
2022/01/16 03:06:42;;;;;;;87.57;34.40;;;1.90;99.90;;;;;;2110094;67;20197;-75
2022/01/16 03:09:33;;;;;;;;;;;1.70;99.90;;;;;;2104349;67;20273;-75
2022/01/16 03:12:16;;;;;;;90.93;36.33;;;1.70;99.90;;;;;;2131711;67;20512;-76
2022/01/16 03:14:57;;;;;;;94.53;37.88;;;1.70;99.90;;;;;;2124569;67;20947;-76
2022/01/16 03:21:52;;;;;;;87.28;35.78;;;1.70;99.90;;;;;;2128572;67;20272;-76
2022/01/16 03:23:42;;;;;;;77.03;31.40;;;1.70;99.90;;;;;;2127553;67;20207;-76
2022/01/16 03:26:27;;;;;;;84.90;36.22;;;1.70;99.90;;;;;;2107638;67;20342;-76
2022/01/16 03:29:09;;;;;;;84.93;34.50;;;1.70;99.90;;;;;;2112870;67;20334;-75
2022/01/16 03:31:50;;;;;;;87.75;34.83;;;1.70;99.90;;;;;;2119789;67;20321;-74
2022/01/16 03:34:36;;;;;;;83.15;35.70;;;1.70;99.90;;;;;;2118195;67;20201;-75
2022/01/16 03:37:18;;;;;;;80.95;37.25;;;1.80;99.90;;;;;;2105334;67;20251;-75
2022/01/16 03:39:59;;;;;;;82.05;32.10;;;1.80;99.90;;;;;;2103095;67;20190;-76
2022/01/16 03:42:42;;;;;;;97.00;38.25;;;1.80;99.90;;;;;;2111224;67;20334;-77
2022/01/16 03:45:27;;;;;;;86.75;37.28;;;1.90;99.90;;;;;;2104617;67;20244;-77
2022/01/16 03:48:09;;;;;;;78.80;35.47;;;1.90;99.90;;;;;;2117305;67;20189;-75
2022/01/16 03:50:52;;;;;;;88.43;35.15;;;1.90;99.90;;;;;;2122213;67;20335;-75
2022/01/16 03:53:37;;;;;;;80.28;36.50;;;1.90;99.90;;;;;;2123631;67;20257;-76
2022/01/16 03:56:19;;;;;;;95.30;38.33;;;1.90;99.90;;;;;;2132780;67;20254;-77
2022/01/16 03:59:01;;;;;;;91.05;35.88;;;1.90;99.90;;;;;;2125124;67;20347;-75
2022/01/16 04:01:44;;;;;;;88.07;34.80;;;1.90;99.90;;;;;;2110419;67;20677;-76
2022/01/16 04:04:29;;;;;;;94.53;37.75;;;1.90;99.90;;;;;;2111001;67;20364;-76
2022/01/16 04:07:16;;;;;;;103.97;37.67;;;2.00;99.90;;;;;;2119778;67;20221;-76
2022/01/16 04:09:58;;;;;;;102.63;39.15;;;2.00;99.90;;;;;;2111115;67;20249;-75
2022/01/16 04:12:40;;;;;;;97.05;38.97;;;1.90;99.90;;;;;;2111178;67;20865;-76
2022/01/16 04:15:31;;;;;;;103.30;39.78;;;2.00;99.90;;;;;;2124779;67;20221;-74
2022/01/16 04:18:14;;;;;;;109.15;39.22;;;2.40;99.90;;;;;;2134966;67;20287;-77
2022/01/16 04:20:59;;;;;;;114.63;43.85;;;2.10;99.90;;;;;;2133329;67;20225;-76
2022/01/16 04:23:41;;;;;;;117.25;42.15;;;2.10;99.90;;;;;;2128228;66;20316;-76
2022/01/16 04:26:26;;;;;;;110.53;40.90;;;2.50;99.90;;;;;;2135390;66;20405;-76
2022/01/16 04:29:09;;;;;;;107.00;39.22;;;2.10;99.90;;;;;;2114060;67;20252;-76
2022/01/16 04:31:51;;;;;;;100.45;36.95;;;2.10;99.90;;;;;;2126714;67;20723;-76
2022/01/16 04:34:33;;;;;;;129.45;43.97;;;2.10;99.90;;;;;;2118394;67;20358;-76
2022/01/16 04:37:15;;;;;;;111.15;42.60;;;2.10;99.90;;;;;;2120133;67;20354;-76
2022/01/16 04:40:00;;;;;;;130.13;45.65;;;2.10;99.90;;;;;;2133027;67;20720;-76
2022/01/16 04:45:43;;;;;;;127.60;43.33;;;2.20;99.90;;;;;;2124398;67;20184;-77
2022/01/16 04:48:28;;;;;;;112.60;40.92;;;2.30;99.90;;;;;;2123453;67;20244;-75
2022/01/16 04:51:10;;;;;;;107.15;42.58;;;2.30;99.90;;;;;;2120699;67;20173;-77
2022/01/16 04:53:52;;;;;;;121.88;45.58;;;2.30;99.90;;;;;;2114041;67;20310;-77
2022/01/16 04:56:34;;;;;;;126.65;45.63;;;2.70;99.90;;;;;;2112064;67;20358;-76
2022/01/16 04:59:16;;;;;;;121.15;42.92;;;2.40;99.90;;;;;;2119762;67;20205;-76
2022/01/16 05:01:59;;;;;;;101.28;39.50;;;2.40;99.90;;;;;;2118896;67;20260;-75
2022/01/16 05:04:45;;;;;;;128.88;40.83;;;2.40;99.90;;;;;;2122689;67;20302;-76
2022/01/16 05:07:22;;;;;;;119.00;44.30;;;2.50;99.90;;;;;;2116178;67;20383;-76
2022/01/16 05:09:58;;;;;;;118.95;44.78;;;2.40;99.90;;;;;;2110129;67;20274;-76
2022/01/16 05:12:51;;;;;;;117.05;45.25;;;2.40;99.90;;;;;;2134183;66;20305;-76
2022/01/16 05:18:35;;;;;;;127.53;46.53;;;2.50;99.90;;;;;;2144225;66;20646;-77
2022/01/16 05:21:25;;;;;;;128.95;45.55;;;2.60;99.90;;;;;;2139800;66;20343;-76
2022/01/16 05:24:10;;;;;;;126.00;45.53;;;2.60;99.90;;;;;;2149864;66;20405;-77
2022/01/16 05:26:58;;;;;;;125.78;45.50;;;2.30;99.90;;;;;;2153639;66;20721;-76
2022/01/16 05:29:36;;;;;;;134.80;47.38;;;2.60;99.90;;;;;;2163533;65;20773;-76
2022/01/16 05:32:29;;;;;;;141.70;47.10;;;2.60;99.90;;;;;;2158243;66;20204;-76
2022/01/16 05:35:07;;;;;;;132.13;47.45;;;2.60;99.90;;;;;;2177021;65;20808;-76
2022/01/16 05:37:44;;;;;;;134.57;47.17;;;2.70;99.90;;;;;;2187519;65;20287;-76
2022/01/16 05:40:35;;;;;;;130.77;48.47;;;2.60;99.90;;;;;;2203347;65;20193;-76
2022/01/16 05:43:25;;;;;;;142.57;47.45;;;2.70;99.90;;;;;;2193691;65;20345;-77
2022/01/16 05:46:02;;;;;;;130.63;48.30;;;2.70;99.90;;;;;;2194008;65;20258;-76
2022/01/16 05:48:39;;;;;;;143.70;49.17;;;2.70;99.90;;;;;;2200028;65;20177;-76
2022/01/16 05:51:16;;;;;;;150.07;49.55;;;2.70;99.90;;;;;;2204151;65;20306;-74
2022/01/16 05:53:52;;;;;;;118.10;39.80;;;3.00;99.90;;;;;;2206081;64;20293;-75
2022/01/16 05:56:43;;;;;;;146.57;51.88;;;2.80;99.90;;;;;;2196688;65;20189;-76
2022/01/16 05:59:35;;;;;;;150.50;48.17;;;2.80;99.90;;;;;;2182623;65;20786;-76
2022/01/16 06:02:15;;;;;;;151.18;50.20;;;2.80;99.90;;;;;;2183427;65;20282;-75
2022/01/16 06:04:59;;;;;;;138.95;48.35;;;2.80;99.90;;;;;;2191052;65;20198;-76
2022/01/16 06:07:50;;;;;;;136.57;47.20;;;2.80;99.90;;;;;;2183622;65;20166;-76
2022/01/16 06:10:33;;;;;;;141.05;48.75;;;2.80;99.90;;;;;;2177020;65;20344;-75
2022/01/16 06:13:15;;;;;;;148.05;51.13;;;2.90;99.90;;;;;;2151060;66;20356;-76
2022/01/16 06:15:57;;;;;;;130.57;45.65;;;2.90;99.90;;;;;;2153981;66;20241;-75
2022/01/16 06:18:39;;;;;;;146.10;51.53;;;2.90;99.90;;;;;;2166493;66;20249;-76
2022/01/16 06:21:23;;;;;;;163.32;49.70;;;3.00;99.90;;;;;;2165496;66;20796;-76
2022/01/16 06:24:10;;;;;;;;;;;2.90;99.90;;;;;;2168530;66;20176;-77
2022/01/16 06:26:54;;;;;;;129.02;44.88;;;3.00;99.90;;;;;;2162342;66;20211;-75
2022/01/16 06:29:40;;;;;;;132.65;49.33;;;3.00;99.90;;;;;;2170753;65;20402;-76
2022/01/16 06:32:23;;;;;;;;;;;3.20;99.90;;;;;;2171562;65;20211;-76
2022/01/16 06:35:09;;;;;;;149.50;50.35;;;3.70;99.90;;;;;;2166906;66;20611;-75
2022/01/16 06:37:52;;;;;;;152.70;49.75;;;3.10;99.90;;;;;;2141637;66;20224;-77
2022/01/16 06:40:37;;;;;;;157.32;52.55;;;3.90;99.90;;;;;;2130272;67;20275;-76
2022/01/16 06:43:18;;;;;;;141.75;52.33;;;3.10;99.90;;;;;;2132655;67;20329;-75
2022/01/16 06:46:00;;;;;;;135.73;50.55;;;3.20;99.90;;;;;;2121429;67;20646;-75
2022/01/16 06:48:42;;;;;;;131.73;47.45;;;3.20;99.90;;;;;;2103938;67;20310;-76
2022/01/16 06:51:29;;;;;;;139.20;49.65;;;3.60;99.90;;;;;;2124812;67;20760;-75
2022/01/16 06:54:13;;;;;;;113.15;45.28;;;3.20;99.90;;;;;;2124966;67;20228;-75
2022/01/16 06:57:15;;;;;;;126.38;47.35;;;3.40;99.90;;;;;;2119141;67;20173;-75
2022/01/16 06:59:58;;;;;;;132.70;47.70;;;3.50;99.90;;;;;;2117715;67;20225;-75
2022/01/16 07:02:41;;;;;;;118.63;45.65;;;3.50;99.90;;;;;;2111018;67;20180;-76
2022/01/16 07:05:23;;;;;;;119.70;43.03;;;3.60;99.90;;;;;;2126836;67;20216;-75
2022/01/16 07:08:05;;;;;;;113.97;44.50;;;3.60;99.90;;;;;;2134323;67;20846;-76
2022/01/16 07:10:48;;;;;;;123.32;48.58;;;3.60;99.90;;;;;;2122993;67;20208;-75
2022/01/16 07:13:33;;;;;;;110.28;47.88;;;3.70;99.90;;;;;;2125631;67;20325;-75
2022/01/16 07:16:15;;;;;;;119.10;47.08;;;3.70;99.90;;;;;;2139729;66;20253;-76
2022/01/16 07:18:58;;;;;;;114.40;46.50;;;3.70;99.90;;;;;;2134771;66;20325;-74
2022/01/16 07:21:41;;;;;;;120.03;43.25;;;3.80;99.90;;;;;;2132420;67;20332;-77
2022/01/16 07:24:23;;;;;;;117.68;45.80;;;3.80;99.90;;;;;;2133430;66;20344;-75
2022/01/16 07:27:05;;;;;;;104.10;44.80;;;3.90;99.90;;;;;;2146119;66;20186;-74
2022/01/16 07:29:47;;;;;;;117.43;45.42;;;3.90;99.90;;;;;;2141342;66;20244;-76
2022/01/16 07:32:30;;;;;;;111.88;47.65;;;3.90;99.90;;;;;;2119231;67;20436;-74
2022/01/16 07:35:11;;;;;;;98.30;39.75;;;4.00;99.90;;;;;;2125271;67;20317;-75
2022/01/16 07:37:53;;;;;;;108.13;45.08;;;4.00;99.90;;;;;;2124470;67;20917;-75
2022/01/16 07:40:35;;;;;;;117.13;46.80;;;4.00;99.90;;;;;;2124652;67;20192;-75
2022/01/16 07:43:19;;;;;;;102.95;43.22;;;4.10;99.90;;;;;;2131730;67;20395;-74
2022/01/16 07:46:04;;;;;;;108.55;48.30;;;4.10;99.90;;;;;;2124362;67;20188;-75
2022/01/16 07:48:47;;;;;;;100.50;42.55;;;4.10;99.90;;;;;;2124974;67;20188;-75
2022/01/16 07:51:32;;;;;;;100.90;45.70;;;4.10;99.90;;;;;;2124725;67;20287;-75
2022/01/16 07:54:14;;;;;;;98.35;43.67;;;4.10;99.90;;;;;;2111066;67;20182;-75
2022/01/16 07:57:17;;;;;;;94.65;43.20;;;4.10;99.90;;;;;;2110709;67;20173;-74
2022/01/16 08:00:01;;;;;;;90.75;41.58;;;4.10;99.90;;;;;;2103570;68;20247;-75
2022/01/16 08:02:43;;;;;;;100.03;43.65;;;4.10;99.90;;;;;;2104821;67;20345;-76
2022/01/16 08:05:25;;;;;;;94.50;43.40;;;4.20;99.90;;;;;;2112731;67;20223;-75
2022/01/16 08:08:10;;;;;;;91.85;39.75;;;4.50;99.90;;;;;;2123787;67;20280;-73
2022/01/16 08:10:52;;;;;;;88.65;41.22;;;4.20;99.90;;;;;;2114082;67;20310;-75
2022/01/16 08:13:38;;;;;;;95.47;40.60;;;4.30;99.90;;;;;;2113072;67;20188;-74
2022/01/16 08:16:22;;;;;;;96.57;42.88;;;4.20;99.90;;;;;;2120674;67;20728;-75
2022/01/16 08:19:04;;;;;;;80.50;40.03;;;4.40;99.90;;;;;;2139085;67;20805;-76
2022/01/16 08:21:46;;;;;;;82.03;37.95;;;4.40;99.90;;;;;;2132044;67;20203;-75
2022/01/16 08:24:28;;;;;;;90.07;38.72;;;4.10;99.90;;;;;;2131949;67;20699;-75
2022/01/16 08:27:15;;;;;;;89.90;41.83;;;4.40;99.90;;;;;;2144570;66;20716;-76
2022/01/16 08:30:00;;;;;;;81.90;37.45;;;4.40;99.90;;;;;;2140045;66;20174;-75
2022/01/16 08:32:43;;;;;;;83.95;38.88;;;4.50;99.90;;;;;;2132591;67;20364;-75
2022/01/16 08:35:25;;;;;;;82.10;38.58;;;4.50;99.90;;;;;;2125230;67;20200;-76
2022/01/16 08:38:06;;;;;;;78.63;37.08;;;4.50;99.90;;;;;;2136734;66;20287;-75
2022/01/16 08:40:51;;;;;;;67.80;34.63;;;4.60;99.90;;;;;;2146782;66;20204;-75
2022/01/16 08:43:34;;;;;;;67.00;35.25;;;4.60;99.90;;;;;;2145001;66;20246;-75
2022/01/16 08:46:17;;;;;;;57.20;31.70;;;4.70;99.90;;;;;;2145358;66;20404;-75
2022/01/16 08:49:00;;;;;;;57.97;30.92;;;4.70;99.90;;;;;;2145438;66;20266;-74
2022/01/16 08:51:46;;;;;;;67.80;36.40;;;4.80;99.90;;;;;;2137776;67;20202;-75
2022/01/16 08:54:37;;;;;;;59.35;32.65;;;4.80;99.90;;;;;;2119991;67;20266;-76
2022/01/16 08:57:22;;;;;;;56.45;31.45;;;4.90;99.90;;;;;;2135227;67;20351;-75
2022/01/16 09:00:10;;;;;;;55.53;28.80;;;4.90;99.90;;;;;;2118155;67;20400;-74
2022/01/16 09:02:51;;;;;;;;;;;5.00;99.90;;;;;;2117679;67;20357;-75
2022/01/16 09:05:35;;;;;;;56.40;30.77;;;5.00;99.90;;;;;;2113386;67;20088;-75
2022/01/16 09:08:20;;;;;;;51.10;28.33;;;5.10;99.90;;;;;;2126047;67;20235;-74
2022/01/16 09:11:04;;;;;;;48.35;28.48;;;5.20;99.90;;;;;;2128396;67;20265;-74
2022/01/16 09:13:46;;;;;;;49.33;27.83;;;5.20;99.90;;;;;;2119950;67;20409;-73
2022/01/16 09:16:30;;;;;;;49.92;28.08;;;5.30;99.90;;;;;;2130829;67;20251;-74
2022/01/16 09:19:14;;;;;;;45.30;27.13;;;5.30;99.90;;;;;;2126065;67;20317;-75
2022/01/16 09:21:59;;;;;;;46.58;27.55;;;5.30;99.90;;;;;;2125213;67;20649;-76
2022/01/16 09:24:41;;;;;;;47.50;26.25;;;5.40;99.90;;;;;;2133103;67;20243;-75
2022/01/16 09:27:24;;;;;;;46.53;27.02;;;5.50;99.90;;;;;;2131312;67;20264;-75
2022/01/16 09:30:10;;;;;;;42.28;25.08;;;5.60;99.90;;;;;;2123505;67;20184;-74
2022/01/16 09:32:52;;;;;;;39.65;24.10;;;5.60;99.90;;;;;;2111131;67;20418;-75
2022/01/16 09:35:34;;;;;;;43.72;25.13;;;5.70;99.90;;;;;;2119198;67;20302;-74
2022/01/16 09:38:17;;;;;;;43.83;25.67;;;5.70;99.90;;;;;;2126195;67;20350;-75
2022/01/16 09:41:06;;;;;;;51.47;26.00;;;5.80;99.90;;;;;;2140428;66;20456;-75
2022/01/16 09:43:50;;;;;;;41.90;23.77;;;5.80;99.90;;;;;;2139355;66;20289;-75
2022/01/16 09:46:34;;;;;;;40.25;24.27;;;5.80;99.90;;;;;;2137795;67;20226;-75
2022/01/16 09:49:19;;;;;;;40.67;24.50;;;5.80;99.90;;;;;;2139060;66;20187;-75
2022/01/16 09:52:04;;;;;;;35.30;22.88;;;5.90;99.90;;;;;;2127657;67;20187;-76
2022/01/16 09:54:47;;;;;;;39.38;23.33;;;5.90;99.90;;;;;;2140981;66;20299;-75
2022/01/16 09:57:34;;;;;;;37.65;23.83;;;5.90;99.90;;;;;;2146059;66;20174;-76
2022/01/16 10:00:20;;;;;;;39.75;23.75;;;5.90;99.90;;;;;;2154043;66;20329;-73
2022/01/16 10:03:03;;;;;;;36.28;23.08;;;6.00;99.90;;;;;;2147237;66;20759;-73
2022/01/16 10:05:49;;;;;;;39.22;23.40;;;6.00;99.90;;;;;;2146470;66;20725;-74
2022/01/16 10:08:30;;;;;;;40.90;24.08;;;6.10;99.90;;;;;;2137853;66;20359;-75
2022/01/16 10:11:38;;;;;;;39.95;23.67;;;6.10;99.90;;;;;;2142012;66;20201;-75
2022/01/16 10:14:48;;;;;;;40.30;24.15;;;6.30;99.90;;;;;;2155160;66;20182;-74
2022/01/16 10:17:31;;;;;;;36.22;22.23;;;6.20;99.90;;;;;;2136376;66;20243;-75
2022/01/16 10:20:17;;;;;;;40.38;23.33;;;6.30;99.90;;;;;;2132404;66;20204;-75
2022/01/16 10:23:01;;;;;;;;;;;6.30;99.90;;;;;;2154742;66;20353;-76
2022/01/16 10:25:48;;;;;;;40.42;22.48;;;6.40;99.90;;;;;;2158677;66;20097;-74
2022/01/16 10:28:34;;;;;;;36.03;22.23;;;7.20;99.90;;;;;;2135852;66;20726;-75
2022/01/16 10:31:26;;;;;;;40.67;23.88;;;6.40;99.90;;;;;;2119619;67;20303;-76
2022/01/16 10:34:28;;;;;;;33.78;22.23;;;6.50;99.90;;;;;;2106303;67;20394;-74
2022/01/16 10:37:23;;;;;;;40.15;21.58;;;6.50;99.90;;;;;;2118149;67;20382;-74
2022/01/16 10:40:21;;;;;;;36.55;20.92;;;6.60;99.90;;;;;;2106026;67;20352;-75
2022/01/16 10:43:13;;;;;;;32.35;21.30;;;6.60;99.90;;;;;;2100443;68;20257;-75
2022/01/16 10:46:00;;;;;;;34.75;19.77;;;6.60;99.90;;;;;;2103363;67;20170;-74
2022/01/16 10:48:49;;;;;;;36.65;21.08;;;7.20;99.90;;;;;;2100021;67;20286;-75
2022/01/16 10:51:33;;;;;;;;;;;6.70;99.90;;;;;;2107965;67;20424;-74
2022/01/16 10:54:33;;;;;;;36.08;20.52;;;6.70;99.90;;;;;;2114076;67;20108;-75
2022/01/16 10:57:41;;;;;;;30.02;18.67;;;6.80;99.90;;;;;;2113480;67;20801;-76
2022/01/16 11:00:42;;;;;;;38.90;20.20;;;6.80;99.90;;;;;;2129303;67;20358;-76
2022/01/16 11:03:26;;;;;;;31.10;18.67;;;6.70;99.90;;;;;;2137012;66;20338;-73
2022/01/16 11:06:11;;;;;;;31.23;19.08;;;6.80;99.90;;;;;;2130833;67;20759;-77
2022/01/16 11:09:03;;;;;;;31.95;17.88;;;6.80;99.90;;;;;;2128953;67;20266;-73
2022/01/16 11:11:59;;;;;;;32.28;19.45;;;6.80;99.90;;;;;;2130851;67;20233;-74
2022/01/16 11:14:44;;;;;;;25.40;17.13;;;6.90;99.90;;;;;;2121613;67;20199;-73
2022/01/16 11:17:33;;;;;;;30.77;17.50;;;6.90;99.90;;;;;;2135429;66;20334;-77
2022/01/16 11:20:26;;;;;;;36.95;19.27;;;6.90;99.90;;;;;;2123774;67;20401;-75
2022/01/16 11:23:29;;;;;;;35.97;19.95;;;7.00;99.90;;;;;;2123769;67;20321;-75
2022/01/16 11:26:11;;;;;;;29.13;16.65;;;7.00;99.90;;;;;;2130571;67;20248;-74
2022/01/16 11:28:54;;;;;;;25.55;17.23;;;7.10;99.90;;;;;;2128025;67;20205;-75
2022/01/16 11:31:53;;;;;;;27.30;16.23;;;6.90;99.90;;;;;;2131026;67;20264;-73
2022/01/16 11:34:40;;;;;;;29.48;16.08;;;6.90;99.90;;;;;;2123210;66;20212;-75
2022/01/16 11:38:00;;;;;;;33.22;15.75;;;6.90;99.90;;;;;;2116367;67;20613;-74
2022/01/16 11:40:52;;;;;;;24.73;15.90;;;6.30;99.90;;;;;;2103545;67;20270;-74
2022/01/16 11:43:57;;;;;;;24.90;15.18;;;6.90;99.90;;;;;;2109469;67;20173;-75
2022/01/16 11:46:48;;;;;;;29.38;14.65;;;7.60;99.90;;;;;;2120833;67;20700;-76
2022/01/16 11:49:35;;;;;;;23.80;14.65;;;6.60;99.90;;;;;;2116862;67;20389;-75
2022/01/16 11:52:21;;;;;;;26.50;13.70;;;7.00;99.90;;;;;;2131150;67;20231;-73
2022/01/16 11:55:13;;;;;;;;;;;7.10;99.90;;;;;;2138534;66;20343;-75
2022/01/16 11:57:57;;;;;;;24.27;13.30;;;7.00;99.90;;;;;;2146615;66;20171;-77
2022/01/16 12:00:51;;;;;;;36.90;13.75;;;7.10;99.90;;;;;;2142859;66;20351;-75
2022/01/16 12:03:43;;;;;;;21.55;11.30;;;7.10;99.90;;;;;;2139696;66;20240;-76
2022/01/16 12:06:37;;;;;;;25.67;10.60;;;6.50;99.90;;;;;;2135777;66;20207;-73
2022/01/16 12:12:26;;;;;;;15.05;10.05;;;7.20;99.90;;;;;;2158866;66;20180;-74
2022/01/16 12:15:16;;;;;;;21.00;9.95;;;7.30;99.90;;;;;;2156340;66;20293;-77
2022/01/16 12:18:04;;;;;;;14.77;9.40;;;7.20;99.90;;;;;;2168377;65;20420;-75
2022/01/16 12:20:49;;;;;;;20.85;9.60;;;7.70;99.90;;;;;;2152013;66;20293;-74
2022/01/16 12:23:48;;;;;;;17.38;8.80;;;7.30;99.90;;;;;;2166921;65;20180;-74
2022/01/16 12:26:44;;;;;;;14.73;8.43;;;7.30;99.90;;;;;;2155157;66;20272;-76
2022/01/16 12:29:31;;;;;;;20.45;8.77;;;7.30;99.90;;;;;;2156014;66;20756;-74
2022/01/16 12:32:58;;;;;;;16.48;8.50;;;6.90;99.90;;;;;;2164059;65;20184;-73
2022/01/16 12:35:49;;;;;;;17.45;8.88;;;7.30;99.90;;;;;;2154040;65;20198;-76
2022/01/16 12:38:39;;;;;;;14.23;8.27;;;7.40;99.90;;;;;;2141879;66;20275;-75
2022/01/16 12:41:36;;;;;;;17.17;7.97;;;7.60;99.90;;;;;;2135852;66;20363;-73
2022/01/16 12:44:25;;;;;;;14.07;7.95;;;7.70;99.90;;;;;;2132062;66;20407;-74
2022/01/16 12:47:12;;;;;;;14.23;8.05;;;7.40;99.90;;;;;;2128351;67;20319;-72
2022/01/16 12:50:12;;;;;;;14.40;7.03;;;7.40;99.90;;;;;;2136385;66;20339;-74
2022/01/16 12:52:57;;;;;;;16.08;7.68;;;7.40;99.90;;;;;;2143604;66;20225;-75
2022/01/16 12:55:39;;;;;;;13.73;7.63;;;7.40;99.90;;;;;;2143251;66;20394;-75
2022/01/16 12:58:25;;;;;;;13.68;7.15;;;7.40;99.90;;;;;;2151903;66;20996;-74
2022/01/16 13:01:09;;;;;;;12.48;7.28;;;7.40;99.90;;;;;;2148665;66;20183;-73
2022/01/16 13:03:50;;;;;;;12.52;7.57;;;7.40;99.90;;;;;;2145481;66;20263;-73
2022/01/16 13:06:34;;;;;;;10.45;6.85;;;7.40;99.90;;;;;;2146860;66;20347;-73
2022/01/16 13:09:17;;;;;;;12.27;7.68;;;8.00;99.90;;;;;;2157050;66;20211;-73
2022/01/16 13:12:07;;;;;;;;;;;7.40;99.90;;;;;;2152495;66;20345;-76
2022/01/16 13:14:58;;;;;;;19.85;8.18;;;7.30;99.90;;;;;;2145081;66;20050;-76
2022/01/16 13:17:42;;;;;;;13.95;7.32;;;6.80;99.90;;;;;;2146646;66;20198;-73
2022/01/16 13:20:27;;;;;;;15.43;7.82;;;7.30;99.90;;;;;;2145502;66;20348;-75
2022/01/16 13:23:16;;;;;;;15.65;8.02;;;7.30;99.90;;;;;;2144774;66;20632;-74
2022/01/16 13:26:00;;;;;;;14.05;7.15;;;7.30;99.90;;;;;;2149427;66;20298;-74
2022/01/16 13:28:50;;;;;;;14.70;7.70;;;7.30;99.90;;;;;;2141017;66;20733;-73
2022/01/16 13:31:42;;;;;;;16.15;7.57;;;7.20;99.90;;;;;;2151943;66;20253;-75
2022/01/16 13:34:39;;;;;;;13.93;7.97;;;7.30;99.90;;;;;;2147391;66;20236;-74
2022/01/16 13:37:34;;;;;;;18.98;8.40;;;7.20;99.90;;;;;;2160858;66;20181;-73
2022/01/16 13:40:18;;;;;;;18.25;8.25;;;7.30;99.90;;;;;;2153981;66;20229;-73
2022/01/16 13:43:07;;;;;;;11.35;7.32;;;7.30;99.90;;;;;;2147244;66;20201;-75
2022/01/16 13:45:49;;;;;;;18.10;7.38;;;7.30;99.90;;;;;;2162134;66;20320;-74
2022/01/16 13:48:34;;;;;;;15.55;8.13;;;7.30;99.90;;;;;;2157913;66;20245;-74
2022/01/16 13:51:21;;;;;;;17.77;8.48;;;7.40;99.90;;;;;;2145857;66;20872;-74
2022/01/16 13:54:11;;;;;;;16.75;8.05;;;7.40;99.90;;;;;;2132446;67;20734;-80
2022/01/16 13:56:53;;;;;;;11.82;7.18;;;7.40;99.90;;;;;;2120166;67;20421;-78
2022/01/16 13:59:35;;;;;;;12.90;7.13;;;7.40;99.90;;;;;;2113028;67;20314;-74
2022/01/16 14:02:21;;;;;;;14.20;6.70;;;7.40;99.90;;;;;;2112255;67;20791;-76
2022/01/16 14:05:04;;;;;;;20.30;7.47;;;7.50;99.90;;;;;;2104211;67;20193;-72
2022/01/16 14:07:46;;;;;;;18.25;8.45;;;7.50;99.90;;;;;;2098800;67;20294;-73
2022/01/16 14:10:51;;;;;;;18.77;7.83;;;7.50;99.90;;;;;;2108540;67;20232;-75
2022/01/16 14:13:48;;;;;;;18.15;8.75;;;7.50;99.90;;;;;;2094499;68;20546;-74
2022/01/16 14:22:32;;;;;;;20.50;9.38;;;7.20;99.90;;;;;;2118015;67;20336;-74
2022/01/16 14:25:14;;;;;;;16.88;9.02;;;7.10;99.90;;;;;;2121721;67;20794;-73
2022/01/16 14:28:01;;;;;;;24.38;10.43;;;6.90;99.90;;;;;;2138334;66;20357;-73
2022/01/16 14:30:49;;;;;;;13.98;8.68;;;6.80;99.90;;;;;;2137312;66;20227;-74
2022/01/16 14:33:23;;;;;;;17.05;7.97;;;6.80;99.90;;;;;;2128416;67;20358;-74
2022/01/16 14:35:56;;;;;;;17.38;8.68;;;6.70;99.90;;;;;;2122026;67;20344;-74
2022/01/16 14:38:31;;;;;;;17.52;8.85;;;6.80;99.90;;;;;;2118707;67;20177;-74
2022/01/16 14:41:11;;;;;;;16.17;8.80;;;6.70;99.90;;;;;;2120593;67;20648;-74
2022/01/16 14:43:54;;;;;;;17.52;8.68;;;6.80;99.90;;;;;;2133035;66;20734;-75
2022/01/16 14:46:49;;;;;;;16.65;8.05;;;6.70;99.90;;;;;;2144871;66;20240;-76
2022/01/16 14:49:27;;;;;;;15.57;7.82;;;6.70;99.90;;;;;;2145370;66;20208;-77
2022/01/16 14:52:11;;;;;;;19.70;8.38;;;6.80;99.90;;;;;;2158696;66;20291;-73
2022/01/16 14:54:50;;;;;;;16.95;9.68;;;6.80;99.90;;;;;;2164487;65;20207;-72
2022/01/16 14:57:40;;;;;;;16.25;9.18;;;6.90;99.90;;;;;;2160382;65;20206;-74
2022/01/16 15:00:33;;;;;;;21.27;9.07;;;7.20;99.90;;;;;;2166172;65;20202;-72
2022/01/16 15:03:24;;;;;;;16.80;9.70;;;6.80;99.90;;;;;;2166116;65;20210;-73
2022/01/16 15:06:06;;;;;;;20.70;10.05;;;6.80;99.90;;;;;;2180893;65;20187;-72